Time;durP1;ratioP1;P1;durP2;ratioP2;P2;SDS_P1;SDS_P2;PMS_P1;PMS_P2;Temp;Humidity;BMP_temperature;BMP_pressure;BME280_temperature;BME280_humidity;BME280_pressure;Samples;Min_cycle;Max_cycle;Signal;HPM_P1;HPM_P2
2023/03/31 00:00:29;;;;;;;4.30;2.17;;;10.80;99.90;;;;;;5019290;28;20216;-71
2023/03/31 00:02:56;;;;;;;5.63;2.23;;;10.80;99.90;;;;;;5018657;28;20652;-70
2023/03/31 00:05:23;;;;;;;6.03;2.17;;;10.80;99.90;;;;;;5018946;28;20221;-71
2023/03/31 00:08:00;;;;;;;4.80;2.13;;;10.80;99.90;;;;;;5018917;28;20209;-72
2023/03/31 00:10:32;;;;;;;3.77;2.20;;;10.80;99.90;;;;;;5014671;28;20209;-72
2023/03/31 00:12:58;;;;;;;5.10;1.93;;;10.80;99.90;;;;;;5019004;28;20997;-72
2023/03/31 00:15:23;;;;;;;4.27;2.40;;;10.80;99.90;;;;;;5017412;28;20196;-72
2023/03/31 00:17:49;;;;;;;4.07;2.47;;;10.80;99.90;;;;;;5013533;28;20205;-79
2023/03/31 00:20:14;;;;;;;6.17;2.07;;;10.80;99.90;;;;;;5015793;28;20210;-79
2023/03/31 00:22:46;;;;;;;3.10;2.17;;;10.90;99.90;;;;;;5019429;28;20233;-79
2023/03/31 00:25:13;;;;;;;4.37;2.17;;;10.90;99.90;;;;;;5018902;28;20787;-71
2023/03/31 00:27:44;;;;;;;4.73;1.67;;;10.90;99.90;;;;;;5015681;28;20197;-70
2023/03/31 00:30:12;;;;;;;1.67;1.57;;;10.90;99.90;;;;;;5015576;28;20209;-70
2023/03/31 00:32:37;;;;;;;4.87;2.10;;;10.80;99.90;;;;;;5018077;28;20266;-70
2023/03/31 00:35:04;;;;;;;3.87;1.90;;;10.90;99.90;;;;;;5017327;28;20200;-71
2023/03/31 00:37:29;;;;;;;4.73;2.03;;;10.90;99.90;;;;;;5015338;28;20287;-71
2023/03/31 00:39:55;;;;;;;4.10;1.93;;;10.90;99.90;;;;;;5017831;28;20296;-71
2023/03/31 00:42:21;;;;;;;3.93;1.30;;;10.90;99.90;;;;;;5018278;28;20526;-72
2023/03/31 00:45:26;;;;;;;4.40;2.07;;;10.80;99.90;;;;;;5018272;28;20232;-72
2023/03/31 00:48:08;;;;;;;6.07;2.10;;;10.80;99.90;;;;;;5017289;28;20234;-71
2023/03/31 00:50:42;;;;;;;2.87;2.00;;;10.80;99.90;;;;;;5015935;28;20316;-71
2023/03/31 00:53:15;;;;;;;4.23;2.10;;;10.80;99.90;;;;;;5016754;28;20201;-71
2023/03/31 00:55:46;;;;;;;4.03;1.40;;;10.80;99.90;;;;;;5018045;28;20661;-73
2023/03/31 00:58:18;;;;;;;3.43;1.87;;;10.80;99.90;;;;;;5017999;28;20310;-73
2023/03/31 01:00:47;;;;;;;4.20;2.07;;;10.70;99.90;;;;;;5014096;28;20202;-72
2023/03/31 01:03:14;;;;;;;4.13;1.53;;;10.70;99.90;;;;;;5017870;28;20586;-71
2023/03/31 01:05:44;;;;;;;6.23;1.70;;;10.70;99.90;;;;;;5017424;28;20290;-71
2023/03/31 01:08:12;;;;;;;6.53;2.53;;;10.60;99.90;;;;;;5008673;28;20204;-71
2023/03/31 01:10:42;;;;;;;3.23;1.60;;;10.60;99.90;;;;;;5018213;28;20208;-70
2023/03/31 01:13:09;;;;;;;6.23;1.80;;;10.50;99.90;;;;;;5018028;28;20198;-71
2023/03/31 01:15:35;;;;;;;4.57;2.43;;;10.50;99.90;;;;;;5008402;28;20678;-70
2023/03/31 01:18:02;;;;;;;7.60;1.90;;;10.50;99.90;;;;;;5010880;28;20224;-71
2023/03/31 01:20:51;;;;;;;4.30;2.20;;;10.50;99.90;;;;;;5016935;28;20226;-73
2023/03/31 01:23:36;;;;;;;5.43;1.97;;;10.40;99.90;;;;;;5015697;28;20649;-72
2023/03/31 01:26:30;;;;;;;3.40;1.70;;;10.40;99.90;;;;;;5020361;28;20710;-71
2023/03/31 01:29:15;;;;;;;6.50;1.83;;;10.40;99.90;;;;;;5018927;28;20291;-80
2023/03/31 01:32:12;;;;;;;2.40;1.33;;;10.30;99.90;;;;;;5026046;28;20208;-70
2023/03/31 01:34:56;;;;;;;3.77;1.87;;;10.30;99.90;;;;;;5015124;28;20253;-71
2023/03/31 01:37:59;;;;;;;5.00;1.87;;;10.30;99.90;;;;;;5015560;28;20230;-72
2023/03/31 01:40:49;;;;;;;3.60;1.17;;;10.30;99.90;;;;;;5014524;28;20203;-71
2023/03/31 01:43:44;;;;;;;7.23;2.33;;;10.30;99.90;;;;;;5017232;28;20281;-71
2023/03/31 01:46:27;;;;;;;5.43;1.67;;;10.40;99.90;;;;;;5014342;28;20226;-71
2023/03/31 01:49:18;;;;;;;4.90;1.70;;;10.30;99.90;;;;;;5017403;28;20206;-72
2023/03/31 01:52:06;;;;;;;2.37;1.23;;;10.30;99.90;;;;;;5006435;28;20209;-71
2023/03/31 01:54:38;;;;;;;3.57;1.07;;;10.40;99.90;;;;;;5013368;28;20197;-72
2023/03/31 01:57:18;;;;;;;1.63;1.43;;;10.30;99.90;;;;;;5012372;28;20191;-72
2023/03/31 02:00:12;;;;;;;4.03;1.40;;;10.30;99.90;;;;;;5009622;28;20204;-70
2023/03/31 02:02:45;;;;;;;4.27;1.93;;;10.30;99.90;;;;;;5013256;28;20200;-72
2023/03/31 02:05:17;;;;;;;3.60;1.67;;;10.30;99.90;;;;;;5017161;28;20220;-71
2023/03/31 02:07:49;;;;;;;3.53;1.53;;;10.30;99.90;;;;;;5015347;28;20224;-71
2023/03/31 02:10:17;;;;;;;1.67;1.23;;;10.30;99.90;;;;;;5012008;28;20291;-71
2023/03/31 02:12:44;;;;;;;3.00;1.77;;;10.30;99.90;;;;;;5016561;28;20612;-71
2023/03/31 02:15:14;;;;;;;1.63;1.23;;;10.20;99.90;;;;;;5016660;28;20208;-71
2023/03/31 02:17:44;;;;;;;4.03;1.77;;;10.20;99.90;;;;;;5020829;28;20254;-71
2023/03/31 02:20:14;;;;;;;6.07;2.00;;;10.20;99.90;;;;;;5016382;28;20201;-71
2023/03/31 02:22:44;;;;;;;3.13;1.50;;;10.20;99.90;;;;;;5020834;28;20714;-71
2023/03/31 02:25:16;;;;;;;4.17;1.43;;;10.30;99.90;;;;;;5014327;28;20218;-71
2023/03/31 02:27:46;;;;;;;2.83;1.93;;;10.30;99.90;;;;;;5016426;28;20197;-71
2023/03/31 02:30:13;;;;;;;4.40;1.60;;;10.30;99.90;;;;;;5015716;28;20316;-70
2023/03/31 02:32:41;;;;;;;1.63;1.30;;;10.30;99.90;;;;;;5016357;28;20248;-71
2023/03/31 02:35:11;;;;;;;7.80;1.97;;;10.30;99.90;;;;;;5016988;28;20302;-70
2023/03/31 02:37:37;;;;;;;3.43;1.23;;;10.40;99.90;;;;;;5015677;28;20211;-70
2023/03/31 02:40:09;;;;;;;5.67;2.20;;;10.40;99.90;;;;;;5015936;28;20212;-70
2023/03/31 02:42:39;;;;;;;2.60;1.60;;;10.40;99.90;;;;;;5011544;28;20203;-70
2023/03/31 02:45:26;;;;;;;2.03;1.13;;;10.40;99.90;;;;;;5019042;28;20235;-73
2023/03/31 02:47:52;;;;;;;1.20;0.93;;;10.50;99.90;;;;;;5019797;28;20201;-71
2023/03/31 02:50:23;;;;;;;1.30;1.00;;;10.50;99.90;;;;;;5023987;28;20211;-71
2023/03/31 02:53:07;;;;;;;3.07;1.30;;;10.50;99.90;;;;;;5020511;28;20250;-71
2023/03/31 02:56:08;;;;;;;4.20;2.00;;;10.50;99.90;;;;;;5017954;28;20716;-71
2023/03/31 02:58:56;;;;;;;2.93;1.50;;;10.50;99.90;;;;;;5008230;28;20212;-71
2023/03/31 03:01:32;;;;;;;5.87;1.87;;;10.50;99.90;;;;;;5009726;28;20303;-72
2023/03/31 03:04:34;;;;;;;4.00;1.57;;;10.50;99.90;;;;;;5014958;28;20580;-72
2023/03/31 03:07:41;;;;;;;2.70;1.33;;;10.50;99.90;;;;;;5012084;28;20204;-72
2023/03/31 03:10:44;;;;;;;5.00;1.40;;;10.50;99.90;;;;;;5015561;28;20254;-72
2023/03/31 03:13:33;;;;;;;3.27;1.47;;;10.50;99.90;;;;;;5015497;28;20211;-70
2023/03/31 03:16:12;;;;;;;3.00;1.60;;;10.50;99.90;;;;;;5014163;28;20569;-70
2023/03/31 03:18:38;;;;;;;4.00;1.30;;;10.50;99.90;;;;;;5011330;28;20211;-70
2023/03/31 03:21:04;;;;;;;2.20;1.10;;;10.50;99.90;;;;;;5018991;28;20199;-71
2023/03/31 03:23:30;;;;;;;2.50;1.57;;;10.50;99.90;;;;;;5020759;28;20706;-71
2023/03/31 03:25:56;;;;;;;5.87;1.70;;;10.50;99.90;;;;;;5014230;28;20210;-71
2023/03/31 03:28:21;;;;;;;4.57;1.70;;;10.50;99.90;;;;;;5019799;28;20292;-71
2023/03/31 03:30:47;;;;;;;2.50;1.57;;;10.50;99.90;;;;;;5013649;28;20323;-71
2023/03/31 03:33:15;;;;;;;3.93;1.37;;;10.50;99.90;;;;;;5012827;28;20673;-72
2023/03/31 03:35:41;;;;;;;5.13;1.80;;;10.50;99.90;;;;;;5015576;28;20574;-72
2023/03/31 03:38:07;;;;;;;4.73;1.50;;;10.50;99.90;;;;;;5013833;28;20199;-71
2023/03/31 03:40:32;;;;;;;3.27;1.63;;;10.60;99.90;;;;;;5030437;28;20209;-70
2023/03/31 03:42:58;;;;;;;6.47;1.67;;;10.60;99.90;;;;;;5015289;28;20199;-71
2023/03/31 03:45:24;;;;;;;7.47;3.20;;;10.50;99.90;;;;;;5015658;28;20240;-72
2023/03/31 03:47:49;;;;;;;5.13;1.50;;;10.60;99.90;;;;;;5017681;28;20198;-73
2023/03/31 03:50:15;;;;;;;5.47;1.30;;;10.50;99.90;;;;;;5018381;28;20210;-71
2023/03/31 03:52:40;;;;;;;2.30;1.23;;;10.50;99.90;;;;;;5020703;28;20188;-72
2023/03/31 03:55:06;;;;;;;3.70;1.40;;;10.50;99.90;;;;;;5018888;28;20781;-72
2023/03/31 03:57:32;;;;;;;4.27;1.90;;;10.50;99.90;;;;;;5019001;28;20669;-71
2023/03/31 03:59:57;;;;;;;2.90;1.47;;;10.50;99.90;;;;;;5027387;28;20201;-72
2023/03/31 04:02:23;;;;;;;1.67;1.40;;;10.50;99.90;;;;;;5019566;28;20275;-73
2023/03/31 04:04:48;;;;;;;4.97;1.40;;;10.50;99.90;;;;;;5021905;28;20243;-71
2023/03/31 04:07:14;;;;;;;3.13;1.53;;;10.50;99.90;;;;;;5014021;28;20293;-72
2023/03/31 04:09:39;;;;;;;4.83;1.30;;;10.50;99.90;;;;;;5025798;28;20214;-72
2023/03/31 04:12:05;;;;;;;2.53;1.63;;;10.50;99.90;;;;;;5023880;28;20201;-71
2023/03/31 04:14:30;;;;;;;2.53;1.50;;;10.50;99.90;;;;;;5019595;28;20554;-72
2023/03/31 04:16:57;;;;;;;5.77;1.93;;;10.50;99.90;;;;;;5022914;28;20263;-71
2023/03/31 04:19:24;;;;;;;3.57;1.37;;;10.50;99.90;;;;;;5018159;28;20532;-73
2023/03/31 04:21:57;;;;;;;3.77;1.20;;;10.50;99.90;;;;;;5018604;28;20551;-72
2023/03/31 04:24:29;;;;;;;1.30;1.17;;;10.50;99.90;;;;;;5018662;28;20208;-71
2023/03/31 04:26:55;;;;;;;6.07;1.70;;;10.50;99.90;;;;;;5021789;28;20205;-71
2023/03/31 04:29:25;;;;;;;4.13;1.20;;;10.50;99.90;;;;;;5022803;28;20201;-74
2023/03/31 04:31:52;;;;;;;4.53;1.63;;;10.40;99.90;;;;;;5020563;28;20226;-72
2023/03/31 04:34:18;;;;;;;5.00;1.43;;;10.40;99.90;;;;;;5023882;28;20240;-72
2023/03/31 04:36:46;;;;;;;4.57;1.70;;;10.40;99.90;;;;;;5021313;28;20224;-72
2023/03/31 04:39:12;;;;;;;4.83;1.47;;;10.50;99.90;;;;;;5026893;28;20215;-72
2023/03/31 04:41:38;;;;;;;1.97;1.50;;;10.50;99.90;;;;;;5026969;28;20959;-71
2023/03/31 04:44:04;;;;;;;2.17;1.40;;;10.50;99.90;;;;;;5021680;28;20267;-71
2023/03/31 04:46:29;;;;;;;1.20;1.10;;;10.50;99.90;;;;;;5017892;28;20231;-72
2023/03/31 04:48:55;;;;;;;4.47;2.33;;;10.50;99.90;;;;;;5020596;28;20206;-70
2023/03/31 04:51:21;;;;;;;2.67;1.70;;;10.50;99.90;;;;;;5018121;28;20226;-71
2023/03/31 04:53:46;;;;;;;4.17;1.63;;;10.50;99.90;;;;;;5019975;28;20209;-71
2023/03/31 04:56:12;;;;;;;3.27;1.37;;;10.40;99.90;;;;;;5017717;28;20820;-73
2023/03/31 04:58:38;;;;;;;2.30;1.43;;;10.40;99.90;;;;;;5018134;28;20200;-72
2023/03/31 05:01:07;;;;;;;7.60;1.77;;;10.40;99.90;;;;;;5017727;28;20836;-71
2023/03/31 05:03:33;;;;;;;3.37;1.37;;;10.40;99.90;;;;;;5016128;28;20309;-72
2023/03/31 05:05:59;;;;;;;5.50;1.60;;;10.40;99.90;;;;;;5017282;28;20703;-72
2023/03/31 05:08:25;;;;;;;7.80;2.07;;;10.40;99.90;;;;;;5032641;28;20212;-72
2023/03/31 05:10:51;;;;;;;2.37;1.43;;;10.30;99.90;;;;;;5017534;28;20243;-72
2023/03/31 05:13:17;;;;;;;3.20;1.63;;;10.30;99.90;;;;;;5022610;28;20748;-72
2023/03/31 05:15:44;;;;;;;3.67;1.37;;;10.20;99.90;;;;;;5019956;28;20204;-72
2023/03/31 05:18:09;;;;;;;3.13;1.60;;;10.20;99.90;;;;;;5017759;28;20425;-72
2023/03/31 05:20:35;;;;;;;4.40;1.93;;;10.10;99.90;;;;;;5008112;28;20220;-72
2023/03/31 05:23:00;;;;;;;3.67;1.20;;;10.10;99.90;;;;;;5020092;28;20209;-72
2023/03/31 05:25:31;;;;;;;4.17;2.10;;;10.10;99.90;;;;;;5019282;28;20211;-72
2023/03/31 05:27:57;;;;;;;3.67;1.70;;;10.10;99.90;;;;;;5015556;28;20986;-71
2023/03/31 05:30:25;;;;;;;3.37;1.63;;;10.10;99.90;;;;;;5017332;28;20243;-71
2023/03/31 05:32:50;;;;;;;6.70;1.60;;;10.10;99.90;;;;;;5017391;28;20618;-71
2023/03/31 05:35:16;;;;;;;4.07;1.57;;;10.10;99.90;;;;;;5021653;28;20283;-71
2023/03/31 05:37:42;;;;;;;3.43;1.70;;;10.10;99.90;;;;;;5017146;28;20215;-71
2023/03/31 05:40:08;;;;;;;5.17;1.97;;;10.20;99.90;;;;;;5015421;28;20304;-70
2023/03/31 05:42:33;;;;;;;3.37;1.50;;;10.20;99.90;;;;;;5017260;28;20241;-71
2023/03/31 05:44:59;;;;;;;4.57;2.10;;;10.30;99.90;;;;;;5016569;28;20752;-71
2023/03/31 05:47:25;;;;;;;4.40;1.77;;;10.40;99.90;;;;;;5017253;28;20954;-72
2023/03/31 05:49:50;;;;;;;3.17;2.33;;;10.40;99.90;;;;;;5015643;28;20201;-72
2023/03/31 05:52:16;;;;;;;2.53;1.83;;;10.50;99.90;;;;;;5014710;28;20201;-71
2023/03/31 05:54:43;;;;;;;6.43;3.00;;;10.50;99.90;;;;;;5016748;28;20234;-71
2023/03/31 05:57:08;;;;;;;14.53;2.60;;;10.60;99.90;;;;;;5016587;28;20263;-71
2023/03/31 05:59:35;;;;;;;7.40;2.30;;;10.60;99.90;;;;;;5016787;28;20677;-71
2023/03/31 06:02:01;;;;;;;8.43;2.27;;;10.60;99.90;;;;;;5016407;28;20937;-71
2023/03/31 06:04:27;;;;;;;6.53;2.13;;;10.60;99.90;;;;;;5018812;28;20195;-71
2023/03/31 06:06:52;;;;;;;8.63;2.17;;;10.60;99.90;;;;;;5016239;28;20630;-71
2023/03/31 06:09:18;;;;;;;4.13;2.13;;;10.50;99.90;;;;;;5016834;28;20221;-71
2023/03/31 06:11:44;;;;;;;3.43;1.90;;;10.60;99.90;;;;;;5016577;28;20237;-71
2023/03/31 06:14:10;;;;;;;6.53;2.13;;;10.50;99.90;;;;;;5016612;28;20257;-71
2023/03/31 06:16:36;;;;;;;4.27;2.23;;;10.50;99.90;;;;;;5017894;28;20206;-70
2023/03/31 06:19:01;;;;;;;3.40;1.97;;;10.50;99.90;;;;;;5016521;28;20205;-74
2023/03/31 06:21:27;;;;;;;6.57;1.83;;;10.50;99.90;;;;;;5018593;28;20258;-73
2023/03/31 06:23:54;;;;;;;4.40;2.40;;;10.60;99.90;;;;;;5022701;28;20683;-71
2023/03/31 06:26:21;;;;;;;5.00;1.60;;;10.70;99.90;;;;;;5019011;28;20228;-71
2023/03/31 06:28:47;;;;;;;6.53;2.30;;;10.80;99.90;;;;;;5014235;28;20204;-70
2023/03/31 06:31:16;;;;;;;1.67;1.40;;;10.90;99.90;;;;;;5020861;28;20301;-72
2023/03/31 06:33:42;;;;;;;4.00;2.10;;;10.90;99.90;;;;;;5018774;28;20731;-78
2023/03/31 06:36:09;;;;;;;6.40;2.50;;;10.80;99.90;;;;;;5011373;28;20221;-72
2023/03/31 06:38:39;;;;;;;4.33;2.43;;;10.80;99.90;;;;;;5014489;28;20202;-73
2023/03/31 06:41:06;;;;;;;5.50;1.80;;;10.80;99.90;;;;;;5011654;28;20327;-73
2023/03/31 06:43:32;;;;;;;3.57;1.50;;;10.70;99.90;;;;;;5031805;28;20231;-70
2023/03/31 06:45:58;;;;;;;5.27;2.50;;;10.90;99.90;;;;;;5016153;28;20741;-70
2023/03/31 06:48:24;;;;;;;3.20;1.60;;;11.00;99.90;;;;;;5016642;28;20193;-71
2023/03/31 06:50:50;;;;;;;7.93;3.03;;;11.10;99.90;;;;;;5018633;28;20283;-71
2023/03/31 06:53:16;;;;;;;3.90;1.73;;;11.20;99.90;;;;;;5020766;28;20741;-71
2023/03/31 06:55:41;;;;;;;3.63;1.50;;;11.40;99.90;;;;;;5011703;28;20212;-71
2023/03/31 06:58:06;;;;;;;3.67;1.60;;;11.40;99.90;;;;;;5012061;28;20236;-71
2023/03/31 07:00:33;;;;;;;5.93;2.47;;;11.50;99.90;;;;;;5011547;28;20213;-71
2023/03/31 07:03:00;;;;;;;6.00;1.80;;;11.60;99.90;;;;;;5011381;28;20212;-70
2023/03/31 07:05:26;;;;;;;5.80;1.93;;;11.80;99.90;;;;;;5014046;28;20216;-70
2023/03/31 07:07:56;;;;;;;5.10;2.27;;;12.00;99.90;;;;;;5016126;28;20210;-73
2023/03/31 07:10:23;;;;;;;8.27;2.13;;;12.30;99.90;;;;;;5016016;28;20291;-71
2023/03/31 07:12:49;;;;;;;3.20;1.50;;;12.50;99.90;;;;;;5016071;28;20199;-71
2023/03/31 07:15:15;;;;;;;4.93;1.90;;;12.50;99.90;;;;;;5013886;28;20202;-70
2023/03/31 07:17:41;;;;;;;3.40;1.57;;;12.60;99.90;;;;;;5020144;28;20249;-71
2023/03/31 07:20:16;;;;;;;6.83;2.17;;;12.60;99.90;;;;;;5016146;28;20204;-73
2023/03/31 07:22:43;;;;;;;2.70;1.63;;;12.80;99.90;;;;;;5011524;28;20205;-73
2023/03/31 07:25:10;;;;;;;9.73;2.53;;;12.80;99.90;;;;;;5014237;28;20218;-72
2023/03/31 07:27:36;;;;;;;4.90;1.80;;;12.80;99.90;;;;;;5013090;28;20259;-73
2023/03/31 07:30:04;;;;;;;5.33;1.47;;;12.90;99.90;;;;;;5019685;28;20198;-72
2023/03/31 07:32:30;;;;;;;5.77;1.73;;;12.90;99.90;;;;;;5019911;28;21108;-73
2023/03/31 07:34:55;;;;;;;4.90;1.70;;;12.80;99.90;;;;;;5019466;28;20667;-73
2023/03/31 07:37:21;;;;;;;13.30;2.30;;;12.80;99.90;;;;;;5019931;28;20206;-72
2023/03/31 07:39:46;;;;;;;9.97;1.90;;;12.80;99.90;;;;;;5012950;28;20206;-71
2023/03/31 07:42:12;;;;;;;8.70;2.87;;;12.80;99.90;;;;;;5023850;28;20288;-73
2023/03/31 07:44:37;;;;;;;5.03;2.10;;;12.80;99.90;;;;;;5019227;28;20699;-72
2023/03/31 07:47:04;;;;;;;5.30;1.90;;;12.80;99.90;;;;;;5019389;28;20640;-72
2023/03/31 07:49:31;;;;;;;7.73;1.57;;;12.80;99.90;;;;;;5019619;28;20201;-71
2023/03/31 07:51:57;;;;;;;1.93;1.27;;;12.90;99.90;;;;;;5019695;28;20214;-72
2023/03/31 07:54:22;;;;;;;3.73;1.57;;;13.00;99.90;;;;;;5017938;28;20206;-73
2023/03/31 07:56:48;;;;;;;5.83;1.20;;;13.10;99.90;;;;;;5019257;28;20227;-72
2023/03/31 07:59:13;;;;;;;5.83;2.07;;;13.40;99.90;;;;;;5019416;28;20565;-73
2023/03/31 08:01:39;;;;;;;10.73;2.93;;;13.80;99.90;;;;;;5019855;28;20757;-72
2023/03/31 08:04:05;;;;;;;3.47;1.23;;;13.90;99.90;;;;;;5019566;28;20211;-72
2023/03/31 08:06:30;;;;;;;5.60;1.80;;;13.90;99.90;;;;;;5017543;28;20211;-72
2023/03/31 08:08:57;;;;;;;3.03;1.47;;;13.70;99.90;;;;;;5019252;28;20199;-73
2023/03/31 08:11:23;;;;;;;5.43;1.43;;;13.80;99.90;;;;;;5019732;28;20195;-72
2023/03/31 08:13:49;;;;;;;2.97;1.30;;;13.90;99.90;;;;;;5020974;28;20210;-73
2023/03/31 08:16:14;;;;;;;2.40;1.37;;;14.00;99.90;;;;;;5019275;28;20752;-73
2023/03/31 08:18:40;;;;;;;3.87;1.27;;;14.00;99.90;;;;;;5019092;28;20207;-72
2023/03/31 08:21:06;;;;;;;4.17;2.20;;;14.10;99.90;;;;;;5016566;28;20685;-73
2023/03/31 08:23:31;;;;;;;5.37;1.67;;;14.20;99.90;;;;;;5017969;28;20250;-72
2023/03/31 08:26:20;;;;;;;4.87;1.73;;;14.10;99.90;;;;;;5017989;28;20269;-74
2023/03/31 08:28:48;;;;;;;3.20;1.40;;;14.10;99.90;;;;;;5016502;28;20218;-73
2023/03/31 08:31:15;;;;;;;5.17;1.60;;;14.30;99.90;;;;;;5018524;28;21266;-74
2023/03/31 08:33:40;;;;;;;16.17;5.93;;;14.60;99.90;;;;;;5018374;28;20658;-71
2023/03/31 08:36:09;;;;;;;4.87;1.67;;;14.60;99.90;;;;;;5018398;28;20269;-73
2023/03/31 08:38:40;;;;;;;17.47;4.73;;;14.60;99.90;;;;;;5013293;28;20684;-73
2023/03/31 08:41:16;;;;;;;7.57;2.60;;;14.50;99.90;;;;;;5022457;28;20222;-73
2023/03/31 08:43:45;;;;;;;10.73;3.73;;;14.60;99.90;;;;;;5018779;28;20628;-72
2023/03/31 08:46:14;;;;;;;5.90;1.63;;;14.80;99.90;;;;;;5021264;28;20294;-71
2023/03/31 08:48:50;;;;;;;4.03;1.67;;;14.90;99.90;;;;;;5021899;28;20203;-72
2023/03/31 08:51:45;;;;;;;6.80;2.67;;;14.90;99.90;;;;;;5019978;28;20291;-72
2023/03/31 08:54:29;;;;;;;3.07;2.03;;;14.80;99.90;;;;;;5025428;28;20249;-72
2023/03/31 08:56:55;;;;;;;3.60;1.83;;;14.70;99.90;;;;;;5020964;28;20518;-72
2023/03/31 08:59:28;;;;;;;5.40;2.50;;;14.50;99.90;;;;;;5020033;28;20203;-72
2023/03/31 09:02:08;;;;;;;6.90;1.47;;;14.50;99.90;;;;;;5017619;28;20214;-72
2023/03/31 09:05:07;;;;;;;3.17;1.63;;;14.60;99.90;;;;;;5015835;28;20196;-71
2023/03/31 09:07:45;;;;;;;5.30;2.13;;;14.80;99.90;;;;;;5015148;28;20231;-70
2023/03/31 09:10:11;;;;;;;5.10;1.53;;;15.20;99.90;;;;;;5018393;28;20195;-70
2023/03/31 09:12:54;;;;;;;5.80;1.90;;;15.60;99.90;;;;;;5017389;28;20199;-70
2023/03/31 09:15:44;;;;;;;6.17;2.00;;;15.80;99.90;;;;;;5015933;28;20218;-71
2023/03/31 09:18:25;;;;;;;6.10;1.87;;;16.00;99.90;;;;;;5016681;28;20646;-72
2023/03/31 09:20:55;;;;;;;4.60;1.97;;;15.80;99.90;;;;;;5014868;28;20266;-72
2023/03/31 09:23:30;;;;;;;2.97;1.30;;;16.00;99.90;;;;;;5017200;28;21014;-73
2023/03/31 09:25:58;;;;;;;4.13;1.70;;;16.30;99.90;;;;;;5015001;28;20693;-72
2023/03/31 09:28:38;;;;;;;2.90;1.37;;;16.40;99.90;;;;;;5015943;28;20204;-73
2023/03/31 09:31:16;;;;;;;6.03;1.50;;;16.30;99.90;;;;;;5016874;28;20667;-73
2023/03/31 09:33:44;;;;;;;4.17;1.53;;;16.40;99.90;;;;;;5019519;28;20310;-73
2023/03/31 09:36:17;;;;;;;4.80;1.90;;;16.40;99.90;;;;;;5017416;28;20315;-72
2023/03/31 09:38:44;;;;;;;4.10;1.27;;;16.30;99.90;;;;;;5017154;28;20203;-73
2023/03/31 09:41:11;;;;;;;5.17;1.60;;;16.10;99.90;;;;;;5015117;28;20196;-74
2023/03/31 09:43:38;;;;;;;5.30;1.57;;;16.30;99.90;;;;;;5020165;28;20272;-75
2023/03/31 09:46:16;;;;;;;5.13;2.00;;;16.10;99.90;;;;;;5021039;28;20223;-73
2023/03/31 09:48:50;;;;;;;3.63;1.73;;;15.70;99.90;;;;;;5017605;28;20611;-74
2023/03/31 09:51:23;;;;;;;4.97;1.77;;;15.60;99.90;;;;;;5012717;28;20210;-74
2023/03/31 09:54:00;;;;;;;6.30;1.67;;;15.30;99.90;;;;;;5020888;28;20211;-80
2023/03/31 09:56:40;;;;;;;4.00;1.77;;;15.00;99.90;;;;;;5012064;28;20207;-73
2023/03/31 09:59:16;;;;;;;4.40;2.03;;;14.70;99.90;;;;;;5017803;28;20202;-73
2023/03/31 10:01:44;;;;;;;4.13;1.80;;;14.50;99.90;;;;;;5011722;28;20208;-76
2023/03/31 10:04:19;;;;;;;6.67;1.90;;;14.40;99.90;;;;;;5016597;28;20368;-76
2023/03/31 10:06:46;;;;;;;4.90;1.77;;;14.30;99.90;;;;;;5014267;28;20307;-72
2023/03/31 10:09:11;;;;;;;3.90;1.90;;;14.40;99.90;;;;;;5015994;28;20199;-75
2023/03/31 10:11:38;;;;;;;3.97;1.90;;;14.50;99.90;;;;;;5016268;28;20234;-70
2023/03/31 10:14:12;;;;;;;5.27;2.60;;;14.30;99.90;;;;;;5016414;28;20789;-74
2023/03/31 10:16:46;;;;;;;2.33;1.10;;;14.20;99.90;;;;;;5016224;28;20207;-75
2023/03/31 10:19:22;;;;;;;5.03;1.40;;;13.90;99.90;;;;;;5013312;28;20233;-73
2023/03/31 10:22:01;;;;;;;4.20;1.23;;;13.70;99.90;;;;;;5017315;28;20258;-76
2023/03/31 10:24:37;;;;;;;3.37;1.33;;;13.90;99.90;;;;;;5012858;28;20947;-71
2023/03/31 10:27:06;;;;;;;6.90;1.97;;;14.20;99.90;;;;;;5016310;28;20215;-71
2023/03/31 10:29:33;;;;;;;2.93;1.73;;;14.50;99.90;;;;;;5016359;28;20206;-71
2023/03/31 10:32:27;;;;;;;4.03;1.60;;;14.70;99.90;;;;;;5012893;28;20299;-71
2023/03/31 10:34:57;;;;;;;2.37;1.40;;;15.00;99.90;;;;;;5013317;28;20199;-72
2023/03/31 10:37:26;;;;;;;6.77;1.87;;;15.00;99.90;;;;;;5016764;28;20192;-73
2023/03/31 10:40:20;;;;;;;4.13;1.00;;;15.10;99.90;;;;;;5016468;28;20244;-72
2023/03/31 10:42:57;;;;;;;2.47;1.70;;;15.30;99.90;;;;;;5019570;28;20199;-72
2023/03/31 10:45:26;;;;;;;3.57;1.60;;;15.20;99.90;;;;;;5012881;28;20223;-72
2023/03/31 10:48:00;;;;;;;4.67;1.40;;;15.10;99.90;;;;;;5016519;28;20191;-71
2023/03/31 10:50:31;;;;;;;3.80;1.50;;;15.00;99.90;;;;;;5012113;28;20282;-72
2023/03/31 10:53:12;;;;;;;1.70;0.90;;;14.70;99.90;;;;;;5016347;28;20195;-72
2023/03/31 10:55:50;;;;;;;1.83;1.30;;;14.40;99.90;;;;;;5017196;28;20207;-72
2023/03/31 10:58:39;;;;;;;3.60;1.63;;;14.20;99.90;;;;;;5016377;28;20223;-71
2023/03/31 11:01:39;;;;;;;3.40;1.70;;;14.30;99.90;;;;;;5014725;28;20286;-71
2023/03/31 11:04:07;;;;;;;3.10;1.20;;;14.60;99.90;;;;;;5018646;28;20246;-71
2023/03/31 11:06:48;;;;;;;4.37;1.40;;;15.00;99.90;;;;;;5019888;28;20290;-72
2023/03/31 11:09:34;;;;;;;2.03;1.23;;;15.30;99.90;;;;;;5018130;28;20199;-71
2023/03/31 11:12:15;;;;;;;3.60;1.23;;;15.70;99.90;;;;;;5016845;28;20203;-72
2023/03/31 11:14:59;;;;;;;7.43;1.20;;;16.10;99.90;;;;;;5018807;28;20233;-72
2023/03/31 11:18:05;;;;;;;3.90;1.13;;;15.70;99.90;;;;;;5020379;28;20204;-72
2023/03/31 11:20:56;;;;;;;2.80;1.23;;;15.60;99.90;;;;;;5017988;28;20203;-71
2023/03/31 11:23:53;;;;;;;2.83;1.30;;;15.90;99.90;;;;;;5019988;28;20645;-71
2023/03/31 11:26:47;;;;;;;3.50;1.73;;;16.30;99.90;;;;;;5018457;28;20237;-71
2023/03/31 11:29:39;;;;;;;5.20;1.57;;;17.00;99.90;;;;;;5019535;28;20211;-70
2023/03/31 11:32:27;;;;;;;4.77;1.37;;;17.50;99.90;;;;;;5016990;28;20280;-71
2023/03/31 11:35:15;;;;;;;2.27;1.03;;;17.30;99.90;;;;;;5020266;28;20214;-71
2023/03/31 11:37:54;;;;;;;3.70;1.60;;;17.50;99.90;;;;;;5017601;28;20207;-70
2023/03/31 11:40:46;;;;;;;1.87;0.93;;;17.90;99.90;;;;;;5016001;28;20200;-71
2023/03/31 11:43:35;;;;;;;3.47;1.07;;;17.70;99.90;;;;;;5015410;28;20206;-70
2023/03/31 11:46:21;;;;;;;4.70;1.77;;;17.40;99.90;;;;;;5014826;28;20219;-72
2023/03/31 11:49:00;;;;;;;6.37;1.73;;;17.10;99.90;;;;;;5020346;28;20195;-70
2023/03/31 11:51:31;;;;;;;3.83;1.47;;;16.50;99.90;;;;;;5016394;28;20658;-71
2023/03/31 11:53:58;;;;;;;3.67;1.20;;;16.20;99.90;;;;;;5019186;28;20198;-72
2023/03/31 11:56:32;;;;;;;3.27;1.60;;;15.70;99.90;;;;;;5017268;28;20233;-72
2023/03/31 11:58:59;;;;;;;2.37;1.47;;;15.70;99.90;;;;;;5019245;28;20770;-72
2023/03/31 12:01:37;;;;;;;2.27;1.20;;;15.60;99.90;;;;;;5019665;28;20289;-72
2023/03/31 12:04:33;;;;;;;3.60;2.00;;;15.40;99.90;;;;;;5016266;28;20542;-72
2023/03/31 12:07:09;;;;;;;3.80;1.83;;;15.30;99.90;;;;;;5016311;28;20211;-72
2023/03/31 12:10:04;;;;;;;3.27;1.37;;;15.00;99.90;;;;;;5019799;28;20203;-73
2023/03/31 12:12:33;;;;;;;5.33;2.17;;;14.70;99.90;;;;;;5018242;28;20200;-72
2023/03/31 12:15:21;;;;;;;5.87;2.27;;;14.50;99.90;;;;;;5014450;28;20457;-73
2023/03/31 12:18:00;;;;;;;2.83;1.60;;;14.40;99.90;;;;;;5023387;28;20249;-73
2023/03/31 12:20:33;;;;;;;4.93;1.90;;;14.30;99.90;;;;;;5016506;28;20221;-74
2023/03/31 12:23:02;;;;;;;4.97;2.20;;;14.40;99.90;;;;;;5018459;28;20278;-72
2023/03/31 12:25:41;;;;;;;3.77;2.33;;;14.50;99.90;;;;;;5014583;28;20701;-74
2023/03/31 12:28:09;;;;;;;4.63;2.50;;;14.90;99.90;;;;;;5018884;28;20232;-72
2023/03/31 12:30:42;;;;;;;6.23;2.90;;;15.40;99.90;;;;;;5019118;28;20986;-72
2023/03/31 12:33:34;;;;;;;3.97;2.03;;;15.60;99.90;;;;;;5019025;28;20199;-72
2023/03/31 12:36:13;;;;;;;4.17;2.07;;;15.60;99.90;;;;;;5017368;28;20199;-73
2023/03/31 12:39:07;;;;;;;2.60;2.10;;;15.60;99.90;;;;;;5017616;28;20195;-74
2023/03/31 12:41:45;;;;;;;3.27;2.17;;;16.20;99.90;;;;;;5022198;28;20200;-72
2023/03/31 12:44:31;;;;;;;4.50;1.93;;;16.20;99.90;;;;;;5015538;28;20253;-72
2023/03/31 12:47:24;;;;;;;4.50;1.53;;;16.10;99.90;;;;;;5020511;28;20250;-76
2023/03/31 12:50:15;;;;;;;2.43;1.47;;;15.90;99.90;;;;;;5015372;28;20234;-75
2023/03/31 12:53:04;;;;;;;3.73;1.80;;;15.60;99.90;;;;;;5015188;28;20199;-76
2023/03/31 12:55:44;;;;;;;4.60;1.93;;;15.20;99.90;;;;;;5012918;28;20654;-75
2023/03/31 12:58:23;;;;;;;4.97;1.73;;;14.70;99.90;;;;;;5018432;28;20674;-76
2023/03/31 13:01:13;;;;;;;4.80;2.33;;;14.10;99.90;;;;;;5015477;28;20206;-75
2023/03/31 13:04:27;;;;;;;2.90;1.80;;;13.70;99.90;;;;;;5014494;28;20285;-76
2023/03/31 13:06:58;;;;;;;3.27;1.93;;;13.20;99.90;;;;;;5002963;28;20219;-76
2023/03/31 13:09:30;;;;;;;5.03;2.63;;;12.90;99.90;;;;;;5014159;28;20211;-77
2023/03/31 13:11:55;;;;;;;8.00;2.33;;;12.60;99.90;;;;;;5018439;28;20211;-77
2023/03/31 13:14:24;;;;;;;2.13;1.93;;;12.30;99.90;;;;;;5018583;28;20247;-77